My Meet Scores
Kamryn Dancy, Oak Lawn Pirouette's Gymnastics - MyMeetScores.com
Top100 | Top Teams | Upcoming Meets | Completed Meets | Latest | Add Scores | Help| Support | Bookmark and Share

Kamryn Dancy, Oak Lawn Pirouette's Gymnastics
Personal Bests
LevelVault BarsBeamFloorAA
48.6507.750 8.6508.50033.300
58.8757.800 8.1258.47532.550
69.2008.900 9.1509.30035.775
XP9.2758.950 9.2009.07536.075
Meet Scores
Date Meet Team Session Level Division Vault Bars Beam Floor AA
2019-05-03 2019 Region 5 Xcel Championships Oak Lawn Pirouette's Gymnastics 01O XP SR C 8.900 23T 8.525 30 9.050 18T 9.075 31 35.550 28T
2019-04-05 2019 Illinois XG, XP, XD State Championships Oak Lawn Pirouette's Gymnastics 1 XP Sr C 9.225 7T 8.800 12 9.200 8T 8.850 23 36.075 10
2019-02-23 Kinetic Classic 2019 Oak Lawn Pirouette's Gymnastics 1 XP Older 8.500 12 8.400 6 8.600 11 8.800 11 34.300 8T
2019-02-01 The Big Chill Oak Lawn Pirouette's Gymnastics 2 XP 14 & 15 y 0.000 4 8.525 1 9.075 2 8.850 3 34.900 3
2019-01-25 UGA Invitational Oak Lawn Pirouette's Gymnastics B01 XP Sr B 9.075 9 7.950 12 8.675 9 9.000 12 34.700 9
2018-12-14 Hawaiian Pineapple Classic Oak Lawn Pirouette's Gymnastics 10B XP Ages14+ 9.275 8 8.950 7 8.800 5T 8.400 12 35.425 8
2018-03-16 2018 Illinois Level 6, 9, 10 State Championships Oak Lawn Pirouette's Gymnastics 06 6 Sr D 9.000 12T 8.350 16 8.900 13T 9.100 20 35.350 17
2018-02-17 Women's Midwest Open Oak Lawn Pirouette's Gymnastics 11 6 SR A 8.350 13 8.675 13 9.150 8 8.925 9 35.100 10
2018-02-01 The Big Chill Oak Lawn Pirouette's Gymnastics 1 6 14 Up 8.850 5 8.900 5 8.425 6 9.150 4 35.325 5
2018-01-26 2018 UGA Classic Oak Lawn Pirouette's Gymnastics B7 6 Senior 8.800 13 7.375 14 8.800 10 9.300 4 34.275 13
2017-12-14 2017 Women's Hawaiian Pineapple Classic Oak Lawn Pirouette's Gymnastics 2A 6 Ages14+ 9.150 3T 8.450 5 9.150 5 9.025 7 35.775 4
2017-11-10 Illinois NAWGJ Judges Cup 2017 Oak Lawn Pirouette's Gymnastics S3 6 All Ages 8.525 31T 8.125 30T 9.025 9T 9.075 28T 34.750 25
2017-03-23 2017 Illinois Level 6, 7 State Championship Oak Lawn Pirouette's Gymnastics 10 6 Sr B 9.075 18T 8.300 22T 9.075 19 8.950 26T 35.400 22
2017-02-24 Kinetic Classic Oak Lawn Pirouette's Gymnastics 9 6 All Ages 9.050 18T 8.300 49 8.800 43 8.875 43T 35.025 44
2017-02-02 The Big Chill Oak Lawn Pirouette's Gymnastics 4 6 13 Year Ol 9.200 4 8.450 9 8.150 9 8.950 8 34.750 8
2017-01-27 2017 UGA Invitational Oak Lawn Pirouette's Gymnastics A7 6 Senior 8.950 7 8.100 10 8.450 12 8.750 8T 34.250 11
2017-01-05 Leenda's Island Adventure Oak Lawn Pirouette's Gymnastics G08 6 12 Year Ol 8.825 5 7.500 10 8.050 10 8.950 9 33.325 9
2016-11-11 2016 Illinois Judges Cup Oak Lawn Pirouette's Gymnastics B3 6 12 Year Ol 8.575 16T 8.450 13 8.875 10 9.000 13T 34.900 13
2016-04-22 2016 Illinois Level 5 And Xcel State Championships Oak Lawn Pirouette's Gymnastics 1 5 Sr B 8.800 15T 7.375 23 6.825 23 8.475 21 31.475 24
2016-02-12 Midwest Twisters Harley Meet Oak Lawn Pirouette's Gymnastics o05 5 12+ yrs. 7.675 20 6.950 14 7.575 20 7.850 16T 30.050 18
2016-01-15 2016 Bravo Classic Oak Lawn Pirouette's Gymnastics 1A 5 11+yrs 8.875 12 7.450 23 7.100 23 7.400 23 30.825 22
2015-12-17 2015 Hawaiian Pineapple Classic Oak Lawn Pirouette's Gymnastics 8A 5 Ages 12+ 8.525 15 7.800 16T 8.125 16 8.100 19 32.550 16
2015-03-19 2015 Illinois Level 4 State Championship Oak Lawn Pirouette's Gymnastics All 4 Jr.F 8.500 19 7.650 28 8.650 21 8.500 25 33.300 26
2015-02-27 Elk Grove Gymnastics Invite Oak Lawn Pirouette's Gymnastics 3 4 11yrs. 8.250 15 7.750 19 8.200 15 8.300 17T 32.500 18
2015-02-21 BIG Classic Oak Lawn Pirouette's Gymnastics 6A 4 Junior A 8.650 8 7.650 15 8.375 13 8.000 15 32.675 14
Get your scores on
a t-shirt, pin, or hoodie

www.lazysuits.com